Auburn Township, Ohio
Current Conditions -  °F | °C
As of 6:00 PM on Wednesday 26 Nov 2014 (Local Time) from KPOV Reporting Station
Overcast Overcast  
Wind Chill: 35°   Ceiling: 3300
Heat Index: 35°   Visibility: 10mi
Dew Point: 23°   Wind: 3mph
Humidity: 63%   Direction: 330°NNW
Pressure: 30.01"   Gusts: NA
Location:  41.2966°N, 81.2269°W
Report Text: KPOV 262300Z AUTO 33003KT 10SM OVC033 02/M05 A3001 RMK AO2 T00151048
Loading
Personal Weather Stations






























Interactive Weather Map New forecast layout! Learn more

10-Day Weather Forecast

Advertisements
Track Severe Weather on mobile